Time;durP1;ratioP1;P1;durP2;ratioP2;P2;SDS_P1;SDS_P2;PMS_P1;PMS_P2;Temp;Humidity;BMP_temperature;BMP_pressure;BME280_temperature;BME280_humidity;BME280_pressure;Samples;Min_cycle;Max_cycle;Signal;HPM_P1;HPM_P2
2024/02/26 00:05:31;;;;;;;19;10.7;;;;;;;6.58;74.46;97758.333333333;;;;
2024/02/26 00:15:29;;;;;;;17.2;9.9;;;;;;;6.41;75.04;97751.666666667;;;;
2024/02/26 00:26:29;;;;;;;17.2;9.9;;;;;;;6.08;76.02;97750;;;;
2024/02/26 00:37:29;;;;;;;17.2;9.9;;;;;;;5.63;77.05;97751.666666667;;;;
2024/02/26 00:48:29;;;;;;;14.3;8.7;;;;;;;5.31;76.48;97745;;;;
2024/02/26 00:59:29;;;;;;;14.3;8.7;;;;;;;4.99;77.8;97736.666666667;;;;
2024/02/26 01:09:29;;;;;;;14.3;8.7;;;;;;;4.71;77.59;97735;;;;
2024/02/26 01:19:29;;;;;;;17.4;8.7;;;;;;;4.49;79.93;97735;;;;
2024/02/26 01:30:29;;;;;;;17.4;8.7;;;;;;;4.27;80.6;97748.333333333;;;;
2024/02/26 01:41:29;;;;;;;23.8;11.1;;;;;;;4.11;81.1;97741.666666667;;;;
2024/02/26 01:51:31;;;;;;;23.8;11.1;;;;;;;4.13;82.46;97745;;;;
2024/02/26 02:01:29;;;;;;;23.8;11.1;;;;;;;4.12;82.9;97740;;;;
2024/02/26 02:12:32;;;;;;;27.1;14.3;;;;;;;4.11;83.68;97741.666666667;;;;
2024/02/26 02:22:31;;;;;;;27.1;14.3;;;;;;;4.02;84.09;97741.666666667;;;;
2024/02/26 02:33:29;;;;;;;27.1;14.3;;;;;;;3.87;85.06;97746.666666667;;;;
2024/02/26 02:44:31;;;;;;;17.4;10.9;;;;;;;3.94;85.43;97751.666666667;;;;
2024/02/26 02:55:29;;;;;;;17.4;10.9;;;;;;;3.85;84.84;97751.666666667;;;;
2024/02/26 03:05:30;;;;;;;17.4;10.9;;;;;;;3.72;86.03;97751.666666667;;;;
2024/02/26 03:15:30;;;;;;;20.9;12.3;;;;;;;3.49;85.3;97751.666666667;;;;
2024/02/26 03:25:30;;;;;;;20.9;12.3;;;;;;;3.29;84.98;97736.666666667;;;;
2024/02/26 03:36:30;;;;;;;20.9;12.3;;;;;;;3.12;85.76;97726.666666667;;;;
2024/02/26 03:47:29;;;;;;;24.1;12.3;;;;;;;3.03;85.89;97710;;;;
2024/02/26 03:58:29;;;;;;;24.1;12.3;;;;;;;3.02;86.76;97713.333333333;;;;
2024/02/26 04:09:29;;;;;;;24.1;12.3;;;;;;;2.92;87.55;97696.666666667;;;;
2024/02/26 04:19:29;;;;;;;17.5;9.6;;;;;;;2.91;87.58;97686.666666667;;;;
2024/02/26 04:29:29;;;;;;;17.5;9.6;;;;;;;2.78;86.87;97690;;;;
2024/02/26 04:39:30;;;;;;;17.5;9.6;;;;;;;2.54;86.88;97690;;;;
2024/02/26 04:50:30;;;;;;;18.4;10.4;;;;;;;2.47;87.8;97670;;;;
2024/02/26 05:01:29;;;;;;;18.4;10.4;;;;;;;2.29;87.21;97683.333333333;;;;
2024/02/26 05:12:30;;;;;;;22.7;12.7;;;;;;;2.17;86.69;97690;;;;
2024/02/26 05:22:30;;;;;;;22.7;12.7;;;;;;;1.96;87.76;97690;;;;
2024/02/26 05:33:30;;;;;;;22.7;12.7;;;;;;;1.93;87.62;97693.333333333;;;;
2024/02/26 05:43:30;;;;;;;18.3;9.2;;;;;;;1.96;87.94;97703.333333333;;;;
2024/02/26 05:54:30;;;;;;;18.3;9.2;;;;;;;2;87.69;97715;;;;
2024/02/26 06:05:30;;;;;;;18.3;9.2;;;;;;;2.03;88.3;97710;;;;
2024/02/26 06:16:30;;;;;;;12.2;8;;;;;;;2.32;89.46;97701.666666667;;;;
2024/02/26 06:26:30;;;;;;;12.2;8;;;;;;;3.03;90.89;97716.666666667;;;;
2024/02/26 06:37:30;;;;;;;12.2;8;;;;;;;3.81;90.64;97741.666666667;;;;
2024/02/26 06:48:30;;;;;;;15.5;8.3;;;;;;;3.94;88.51;97753.333333333;;;;
2024/02/26 06:59:30;;;;;;;15.5;8.3;;;;;;;4.24;87.72;97748.333333333;;;;
2024/02/26 07:09:30;;;;;;;15.5;8.3;;;;;;;4.67;87.66;97756.666666667;;;;
2024/02/26 07:20:30;;;;;;;18.7;9.2;;;;;;;5.13;88.17;97746.666666667;;;;
2024/02/26 07:30:30;;;;;;;18.7;9.2;;;;;;;5.84;86.77;97741.666666667;;;;
2024/02/26 07:41:30;;;;;;;14.7;10.4;;;;;;;6.8;85.08;97738.333333333;;;;
2024/02/26 07:51:30;;;;;;;14.7;10.4;;;;;;;7.43;83.25;97750;;;;
2024/02/26 08:01:30;;;;;;;14.7;10.4;;;;;;;7.8;80.44;97750;;;;
2024/02/26 08:11:30;;;;;;;15.9;8.6;;;;;;;8.05;79.15;97756.666666667;;;;
2024/02/26 08:21:30;;;;;;;15.9;8.6;;;;;;;8.4;79.03;97753.333333333;;;;
2024/02/26 08:32:30;;;;;;;15.9;8.6;;;;;;;8.91;78.62;97755;;;;
2024/02/26 08:43:30;;;;;;;19.9;14.1;;;;;;;9.55;76.99;97746.666666667;;;;
2024/02/26 08:54:31;;;;;;;19.9;14.1;;;;;;;9.92;75.94;97741.666666667;;;;
2024/02/26 09:05:30;;;;;;;19.9;14.1;;;;;;;10.54;73.39;97728.333333333;;;;
2024/02/26 09:16:30;;;;;;;16.3;11;;;;;;;11.16;72.68;97723.333333333;;;;
2024/02/26 09:26:30;;;;;;;16.3;11;;;;;;;11.39;71.17;97736.666666667;;;;
2024/02/26 09:36:30;;;;;;;16.3;11;;;;;;;11.73;71.86;97740;;;;
2024/02/26 09:47:30;;;;;;;13.5;8.2;;;;;;;12.6;70.45;97736.666666667;;;;
2024/02/26 09:58:30;;;;;;;13.5;8.2;;;;;;;12.72;68.89;97728.333333333;;;;
2024/02/26 10:08:30;;;;;;;13.5;8.2;;;;;;;13.42;67.9;97725;;;;
2024/02/26 10:18:30;;;;;;;12.5;8.3;;;;;;;13.84;67.29;97715;;;;
2024/02/26 10:28:30;;;;;;;12.5;8.3;;;;;;;14.87;64.05;97718.333333333;;;;
2024/02/26 10:38:30;;;;;;;12.5;8.3;;;;;;;15.56;61.07;97715;;;;
2024/02/26 10:49:30;;;;;;;14.8;8.5;;;;;;;15.98;60.06;97700;;;;
2024/02/26 10:59:30;;;;;;;14.8;8.5;;;;;;;16.28;58.19;97698.333333333;;;;
2024/02/26 11:09:30;;;;;;;14.8;8.5;;;;;;;17.05;56.54;97695;;;;
2024/02/26 11:19:30;;;;;;;12.8;7.1;;;;;;;16.55;55.52;97695;;;;
2024/02/26 11:30:30;;;;;;;12.8;7.1;;;;;;;17.06;54.99;97691.666666667;;;;
2024/02/26 11:41:30;;;;;;;3.4;1.7;;;;;;;17.36;51.46;97688.333333333;;;;
2024/02/26 11:52:30;;;;;;;3.4;1.7;;;;;;;17.81;53.72;97685;;;;
2024/02/26 12:02:30;;;;;;;3.4;1.7;;;;;;;18.19;52.65;97686.666666667;;;;
2024/02/26 12:12:30;;;;;;;7.3;4.3;;;;;;;17.29;53.35;97670;;;;
2024/02/26 12:23:30;;;;;;;7.3;4.3;;;;;;;17.84;52.8;97678.333333333;;;;
2024/02/26 12:34:30;;;;;;;7.3;4.3;;;;;;;17.79;53.76;97676.666666667;;;;
2024/02/26 12:45:30;;;;;;;4.7;2.3;;;;;;;17.89;52.07;97678.333333333;;;;
2024/02/26 12:56:30;;;;;;;4.7;2.3;;;;;;;17.7;53.99;97680;;;;
2024/02/26 13:07:30;;;;;;;4.7;2.3;;;;;;;17.89;53.52;97678.333333333;;;;
2024/02/26 13:17:30;;;;;;;5.1;2.3;;;;;;;17.37;53.88;97681.666666667;;;;
2024/02/26 13:27:30;;;;;;;5.1;2.3;;;;;;;17.08;54.31;97685;;;;
2024/02/26 13:38:30;;;;;;;5.1;2.3;;;;;;;16.58;57;97696.666666667;;;;
2024/02/26 13:49:30;;;;;;;4.3;2.7;;;;;;;16.5;57.74;97691.666666667;;;;
2024/02/26 14:00:33;;;;;;;4.3;2.7;;;;;;;16.28;59.06;97700;;;;
2024/02/26 14:10:31;;;;;;;4.6;2.7;;;;;;;16.13;58.85;97695;;;;
2024/02/26 14:21:30;;;;;;;4.6;2.7;;;;;;;16.34;60.07;97693.333333333;;;;
2024/02/26 14:31:30;;;;;;;4.6;2.7;;;;;;;16.23;60.13;97701.666666667;;;;
2024/02/26 14:42:30;;;;;;;9.3;5.5;;;;;;;16.2;60.26;97705;;;;
2024/02/26 14:53:30;;;;;;;9.3;5.5;;;;;;;16.02;60.82;97711.666666667;;;;
2024/02/26 15:03:30;;;;;;;9.3;5.5;;;;;;;15.81;62.57;97711.666666667;;;;
2024/02/26 15:14:30;;;;;;;14.4;8.4;;;;;;;15.56;63.16;97720;;;;
2024/02/26 15:24:30;;;;;;;14.4;8.4;;;;;;;15.25;64.12;97728.333333333;;;;
2024/02/26 15:35:30;;;;;;;14.4;8.4;;;;;;;14.93;65.6;97733.333333333;;;;
2024/02/26 15:45:33;;;;;;;16.6;10.3;;;;;;;14.57;66.29;97741.666666667;;;;
2024/02/26 16:04:12;;;;;;;16.6;10.3;;;;;;;13.8;69.75;97746.666666667;;;;
2024/02/26 16:14:11;;;;;;;18.6;12.2;;;;;;;13.3;69.81;97750;;;;
2024/02/26 16:24:11;;;;;;;18.6;12.2;;;;;;;12.67;70;97751.666666667;;;;
2024/02/26 16:35:11;;;;;;;18.6;12.2;;;;;;;12.13;71.59;97761.666666667;;;;
2024/02/26 16:46:11;;;;;;;16.6;9.9;;;;;;;11.74;73.42;97768.333333333;;;;
2024/02/26 16:56:11;;;;;;;16.6;9.9;;;;;;;11.51;73.84;97766.666666667;;;;
2024/02/26 17:06:11;;;;;;;16.6;9.9;;;;;;;11.24;74.51;97720;;;;
2024/02/26 17:17:11;;;;;;;13.4;8.9;;;;;;;11.02;75.46;97743.333333333;;;;
2024/02/26 17:26:14;;;;;;;13.4;8.9;;;;;;;10.92;76.76;97790;;;;
2024/02/26 17:36:14;;;;;;;13.4;8.9;;;;;;;10.75;76.61;97797.5;;;;
2024/02/26 17:47:14;;;;;;;21.6;13.9;;;;;;;10.4;76.3;97807.5;;;;
2024/02/26 17:58:14;;;;;;;21.6;13.9;;;;;;;10;76.72;97826.666666667;;;;
2024/02/26 18:09:14;;;;;;;21.6;13.9;;;;;;;9.72;77.71;97835;;;;
2024/02/26 18:19:14;;;;;;;46.6;24.9;;;;;;;9.38;77.88;97845;;;;
2024/02/26 18:29:14;;;;;;;46.6;24.9;;;;;;;9.1;78.69;97863.333333333;;;;
2024/02/26 18:40:14;;;;;;;46.6;24.9;;;;;;;8.92;79.72;97881.666666667;;;;
2024/02/26 18:50:14;;;;;;;93.9;51.3;;;;;;;8.71;80.75;97891.666666667;;;;
2024/02/26 19:01:15;;;;;;;93.9;51.3;;;;;;;8.66;82.17;97903.333333333;;;;
2024/02/26 19:11:16;;;;;;;40;23.3;;;;;;;8.91;82.26;97913.333333333;;;;
2024/02/26 19:22:14;;;;;;;40;23.3;;;;;;;9.19;82.64;97931.666666667;;;;
2024/02/26 19:33:15;;;;;;;40;23.3;;;;;;;9.31;82.92;97946.666666667;;;;
2024/02/26 19:43:15;;;;;;;27.1;16.5;;;;;;;9.53;82.39;97956.666666667;;;;
2024/02/26 19:54:15;;;;;;;27.1;16.5;;;;;;;9.67;81.93;97950;;;;
2024/02/26 20:05:14;;;;;;;27.1;16.5;;;;;;;9.65;82.06;97955;;;;
2024/02/26 20:15:15;;;;;;;26;15.3;;;;;;;9.82;80.99;97965;;;;
2024/02/26 20:26:15;;;;;;;26;15.3;;;;;;;9.65;80.61;97975;;;;
2024/02/26 20:37:15;;;;;;;26;15.3;;;;;;;9.59;80.63;97990;;;;
2024/02/26 20:48:15;;;;;;;48.8;29.2;;;;;;;9.38;82.01;97990;;;;
2024/02/26 20:59:15;;;;;;;48.8;29.2;;;;;;;9.52;81.27;97998.333333333;;;;
2024/02/26 21:09:15;;;;;;;48.8;29.2;;;;;;;9.44;81.26;98008.333333333;;;;
2024/02/26 21:20:15;;;;;;;42.2;24.2;;;;;;;9.37;81.22;98030;;;;
2024/02/26 21:31:15;;;;;;;42.2;24.2;;;;;;;8.93;81.72;98038.333333333;;;;
2024/02/26 21:41:15;;;;;;;34.3;22.9;;;;;;;8.78;81.89;98045;;;;
2024/02/26 21:52:17;;;;;;;34.3;22.9;;;;;;;8.54;82.78;98041.666666667;;;;
2024/02/26 22:02:15;;;;;;;34.3;22.9;;;;;;;8.36;82.43;98040;;;;
2024/02/26 22:12:15;;;;;;;26.7;16.6;;;;;;;8.14;84.36;98045;;;;
2024/02/26 22:22:15;;;;;;;26.7;16.6;;;;;;;7.93;83.61;98051.666666667;;;;
2024/02/26 22:33:15;;;;;;;26.7;16.6;;;;;;;7.69;83.19;98058.333333333;;;;
2024/02/26 22:43:15;;;;;;;30.9;17.4;;;;;;;7.27;85.13;98066.666666667;;;;
2024/02/26 22:54:15;;;;;;;30.9;17.4;;;;;;;7.15;85.5;98052;;;;
2024/02/26 23:04:15;;;;;;;30.9;17.4;;;;;;;7.09;86.1;98076.666666667;;;;
2024/02/26 23:14:15;;;;;;;21.7;12.9;;;;;;;6.99;87.55;98105;;;;
2024/02/26 23:25:15;;;;;;;21.7;12.9;;;;;;;7.01;86.66;98095;;;;
2024/02/26 23:36:15;;;;;;;21.7;12.9;;;;;;;6.89;85.85;98108.333333333;;;;
2024/02/26 23:47:15;;;;;;;39.8;20.7;;;;;;;6.66;85.38;98113.333333333;;;;
2024/02/26 23:57:15;;;;;;;39.8;20.7;;;;;;;6.4;87.86;98116.666666667;;;;
